createdAt,value
2023-01-29T00:00:13.981Z,18.30
2023-01-29T00:02:40.745Z,18.21
2023-01-29T00:05:26.105Z,18.22
2023-01-29T00:07:53.770Z,18.16
2023-01-29T00:10:20.563Z,18.16
2023-01-29T00:12:47.835Z,18.07
2023-01-29T00:15:14.310Z,18.09
2023-01-29T00:17:40.967Z,18.02
2023-01-29T00:20:07.405Z,17.98
2023-01-29T00:22:33.804Z,17.97
2023-01-29T00:25:00.284Z,17.96
2023-01-29T00:27:27.108Z,17.90
2023-01-29T00:29:53.464Z,17.84
2023-01-29T00:32:19.972Z,17.83
2023-01-29T00:34:47.391Z,17.80
2023-01-29T00:37:13.765Z,17.78
2023-01-29T00:39:47.866Z,17.71
2023-01-29T00:42:14.585Z,17.71
2023-01-29T00:44:41.208Z,17.70
2023-01-29T00:47:07.771Z,17.65
2023-01-29T00:49:34.457Z,17.56
2023-01-29T00:52:01.205Z,17.64
2023-01-29T00:54:27.919Z,17.61
2023-01-29T00:56:54.654Z,17.58
2023-01-29T00:59:21.068Z,17.52
2023-01-29T01:01:47.452Z,17.54
2023-01-29T01:04:14.312Z,17.49
2023-01-29T01:06:41.042Z,17.37
2023-01-29T01:09:07.635Z,17.40
2023-01-29T01:11:34.354Z,17.38
2023-01-29T01:14:01.126Z,17.36
2023-01-29T01:16:27.695Z,17.35
2023-01-29T01:18:54.209Z,17.31
2023-01-29T01:21:20.625Z,17.27
2023-01-29T01:23:47.017Z,17.25
2023-01-29T01:26:13.482Z,17.21
2023-01-29T01:28:39.948Z,17.11
2023-01-29T01:31:06.600Z,17.14
2023-01-29T01:33:33.050Z,17.19
2023-01-29T01:35:59.708Z,17.07
2023-01-29T01:38:26.483Z,17.12
2023-01-29T01:40:53.688Z,17.08
2023-01-29T01:43:20.203Z,17.03
2023-01-29T01:45:46.721Z,17.04
2023-01-29T01:48:13.206Z,17.02
2023-01-29T01:50:39.844Z,17.01
2023-01-29T01:53:06.322Z,16.99
2023-01-29T01:55:33.082Z,16.94
2023-01-29T01:57:59.576Z,16.88
2023-01-29T02:00:26.150Z,16.87
2023-01-29T02:02:53.034Z,16.83
2023-01-29T02:05:19.725Z,16.86
2023-01-29T02:07:46.781Z,16.81
2023-01-29T02:10:13.815Z,16.80
2023-01-29T02:12:40.561Z,16.72
2023-01-29T02:15:07.140Z,16.70
2023-01-29T02:17:34.328Z,16.74
2023-01-29T02:20:00.787Z,16.69
2023-01-29T02:22:28.092Z,16.66
2023-01-29T02:24:55.184Z,16.66
2023-01-29T02:27:21.619Z,16.61
2023-01-29T02:29:48.335Z,16.61
2023-01-29T02:32:15.054Z,16.59
2023-01-29T02:34:41.435Z,16.57
2023-01-29T02:37:07.895Z,16.55
2023-01-29T02:39:34.505Z,16.55
2023-01-29T02:42:01.412Z,16.55
2023-01-29T02:44:27.897Z,16.50
2023-01-29T02:46:54.478Z,16.47
2023-01-29T02:49:20.960Z,16.45
2023-01-29T02:51:47.349Z,16.48
2023-01-29T02:54:14.182Z,16.47
2023-01-29T02:56:40.679Z,16.43
2023-01-29T02:59:07.048Z,16.41
2023-01-29T03:01:33.522Z,16.39
2023-01-29T03:03:59.985Z,16.41
2023-01-29T03:06:26.513Z,16.36
2023-01-29T03:08:53.233Z,16.38
2023-01-29T03:11:19.645Z,16.33
2023-01-29T03:13:46.123Z,16.25
2023-01-29T03:16:12.929Z,16.24
2023-01-29T03:18:39.483Z,16.28
2023-01-29T03:21:05.893Z,16.29
2023-01-29T03:23:32.657Z,16.25
2023-01-29T03:25:59.185Z,16.18
2023-01-29T03:28:25.572Z,16.17
2023-01-29T03:30:52.022Z,16.14
2023-01-29T03:33:18.547Z,16.13
2023-01-29T03:35:45.425Z,16.14
2023-01-29T03:38:11.916Z,16.14
2023-01-29T03:40:38.483Z,16.16
2023-01-29T03:43:04.880Z,16.06
2023-01-29T03:45:31.978Z,16.00
2023-01-29T03:47:58.607Z,16.03
2023-01-29T03:50:25.182Z,16.04
2023-01-29T03:52:51.741Z,16.06
2023-01-29T03:55:19.238Z,16.01
2023-01-29T03:57:45.927Z,16.06
2023-01-29T04:00:12.456Z,16.03
2023-01-29T04:02:38.960Z,15.97
2023-01-29T04:05:07.169Z,16.00
2023-01-29T04:07:33.957Z,16.00
2023-01-29T04:10:00.955Z,15.91
2023-01-29T04:12:28.787Z,15.92
2023-01-29T04:14:55.498Z,15.87
2023-01-29T04:17:22.120Z,15.83
2023-01-29T04:19:49.086Z,15.84
2023-01-29T04:22:15.615Z,15.83
2023-01-29T04:24:42.326Z,15.79
2023-01-29T04:27:08.695Z,15.78
2023-01-29T04:29:35.614Z,15.77
2023-01-29T04:32:02.301Z,15.78
2023-01-29T04:34:28.826Z,15.74
2023-01-29T04:36:55.411Z,15.80
2023-01-29T04:39:21.907Z,15.71
2023-01-29T04:41:48.532Z,15.74
2023-01-29T04:44:14.911Z,15.70
2023-01-29T04:46:41.250Z,15.73
2023-01-29T04:49:07.931Z,15.69
2023-01-29T04:51:34.438Z,15.69
2023-01-29T04:54:00.846Z,15.68
2023-01-29T04:56:27.466Z,15.65
2023-01-29T04:58:53.897Z,15.66
2023-01-29T05:01:20.362Z,15.65
2023-01-29T05:03:47.124Z,15.61
2023-01-29T05:06:13.589Z,15.57
2023-01-29T05:08:40.236Z,15.60
2023-01-29T05:11:06.677Z,15.57
2023-01-29T05:13:33.508Z,15.57
2023-01-29T05:16:00.015Z,15.55
2023-01-29T05:18:26.857Z,15.54
2023-01-29T05:20:53.656Z,15.50
2023-01-29T05:23:20.233Z,15.49
2023-01-29T05:25:46.815Z,15.53
2023-01-29T05:28:13.549Z,15.51
2023-01-29T05:30:40.102Z,15.48
2023-01-29T05:33:06.754Z,15.46
2023-01-29T05:35:33.209Z,15.43
2023-01-29T05:37:59.797Z,15.41
2023-01-29T05:40:26.434Z,15.44
2023-01-29T05:42:53.008Z,15.46
2023-01-29T05:45:19.551Z,15.40
2023-01-29T05:47:46.036Z,15.38
2023-01-29T05:50:12.684Z,15.34
2023-01-29T05:52:39.334Z,15.36
2023-01-29T05:55:05.844Z,15.33
2023-01-29T05:57:32.334Z,15.33
2023-01-29T05:59:58.863Z,15.31
2023-01-29T06:02:25.538Z,15.31
2023-01-29T06:04:52.538Z,15.29
2023-01-29T06:07:19.403Z,15.23
2023-01-29T06:09:46.037Z,15.20
2023-01-29T06:12:12.968Z,15.19
2023-01-29T06:14:39.628Z,15.19
2023-01-29T06:17:06.128Z,15.14
2023-01-29T06:19:33.140Z,15.18
2023-01-29T06:21:59.561Z,15.12
2023-01-29T06:24:26.162Z,15.09
2023-01-29T06:26:53.059Z,15.10
2023-01-29T06:29:19.644Z,15.12
2023-01-29T06:31:46.315Z,15.08
2023-01-29T06:34:12.992Z,15.03
2023-01-29T06:36:39.368Z,15.04
2023-01-29T06:39:06.142Z,15.05
2023-01-29T06:41:32.792Z,15.01
2023-01-29T06:43:59.291Z,15.00
2023-01-29T06:46:25.709Z,15.04
2023-01-29T06:48:52.783Z,14.97
2023-01-29T06:51:19.622Z,14.97
2023-01-29T06:53:46.910Z,14.94
2023-01-29T06:56:13.795Z,14.95
2023-01-29T06:58:40.325Z,14.92
2023-01-29T07:01:06.878Z,14.92
2023-01-29T07:03:33.525Z,14.92
2023-01-29T07:06:00.075Z,14.87
2023-01-29T07:08:26.877Z,14.90
2023-01-29T07:10:53.453Z,14.86
2023-01-29T07:13:19.854Z,14.86
2023-01-29T07:15:46.444Z,14.86
2023-01-29T07:18:13.156Z,14.84
2023-01-29T07:20:39.564Z,14.86
2023-01-29T07:23:06.195Z,14.83
2023-01-29T07:25:32.794Z,14.87
2023-01-29T07:28:00.873Z,14.86
2023-01-29T07:30:27.581Z,14.80
2023-01-29T07:32:54.171Z,14.82
2023-01-29T07:35:20.837Z,14.79
2023-01-29T07:37:47.292Z,14.77
2023-01-29T07:40:13.878Z,14.79
2023-01-29T07:42:40.862Z,14.75
2023-01-29T07:45:07.478Z,14.79
2023-01-29T07:47:34.148Z,14.77
2023-01-29T07:50:00.670Z,14.75
2023-01-29T07:52:27.311Z,14.71
2023-01-29T07:54:53.740Z,14.73
2023-01-29T07:57:20.426Z,14.68
2023-01-29T07:59:47.367Z,14.70
2023-01-29T08:02:13.948Z,14.68
2023-01-29T08:04:40.533Z,14.65
2023-01-29T08:07:06.941Z,14.67
2023-01-29T08:09:33.716Z,14.65
2023-01-29T08:12:00.245Z,14.64
2023-01-29T08:14:26.917Z,14.65
2023-01-29T08:16:53.242Z,14.61
2023-01-29T08:19:20.565Z,14.60
2023-01-29T08:21:47.101Z,14.60
2023-01-29T08:24:13.848Z,14.59
2023-01-29T08:26:40.383Z,14.59
2023-01-29T08:29:06.997Z,14.60
2023-01-29T08:31:33.671Z,14.56
2023-01-29T08:34:00.155Z,14.57
2023-01-29T08:36:26.562Z,14.55
2023-01-29T08:38:53.644Z,14.57
2023-01-29T08:41:20.718Z,14.58
2023-01-29T08:43:47.229Z,14.54
2023-01-29T08:46:13.673Z,14.57
2023-01-29T08:48:40.131Z,14.47
2023-01-29T08:51:06.717Z,14.49
2023-01-29T08:53:33.569Z,14.50
2023-01-29T08:56:00.197Z,14.47
2023-01-29T08:58:27.880Z,14.49
2023-01-29T09:00:54.267Z,14.52
2023-01-29T09:03:21.111Z,14.52
2023-01-29T09:05:47.465Z,14.56
2023-01-29T09:08:14.007Z,14.58
2023-01-29T09:10:40.543Z,14.62
2023-01-29T09:13:07.280Z,14.66
2023-01-29T09:15:33.734Z,14.71
2023-01-29T09:18:00.159Z,14.78
2023-01-29T09:20:27.382Z,14.86
2023-01-29T09:22:53.911Z,14.90
2023-01-29T09:25:20.628Z,14.93
2023-01-29T09:27:47.220Z,15.01
2023-01-29T09:30:14.128Z,15.06
2023-01-29T09:32:56.016Z,15.12
2023-01-29T09:35:22.633Z,15.18
2023-01-29T09:37:49.389Z,15.24
2023-01-29T09:40:16.249Z,15.30
2023-01-29T09:42:42.806Z,15.35
2023-01-29T09:45:09.475Z,15.41
2023-01-29T09:47:35.981Z,15.44
2023-01-29T09:50:02.840Z,15.51
2023-01-29T09:52:29.523Z,15.51
2023-01-29T09:54:55.990Z,15.58
2023-01-29T09:57:22.445Z,15.62
2023-01-29T09:59:49.650Z,15.69
2023-01-29T10:02:16.292Z,15.73
2023-01-29T10:04:43.009Z,15.79
2023-01-29T10:07:09.506Z,15.85
2023-01-29T10:09:36.223Z,15.86
2023-01-29T10:12:02.958Z,15.93
2023-01-29T10:14:29.579Z,15.94
2023-01-29T10:16:56.078Z,15.98
2023-01-29T10:19:22.573Z,16.02
2023-01-29T10:21:49.014Z,16.03
2023-01-29T10:24:16.120Z,16.09
2023-01-29T10:26:43.132Z,16.13
2023-01-29T10:29:09.855Z,16.17
2023-01-29T10:31:36.350Z,16.24
2023-01-29T10:34:03.234Z,16.27
2023-01-29T10:36:29.818Z,16.30
2023-01-29T10:38:56.270Z,16.34
2023-01-29T10:41:22.732Z,16.37
2023-01-29T10:43:49.432Z,16.42
2023-01-29T10:46:16.227Z,16.45
2023-01-29T10:48:42.758Z,16.48
2023-01-29T10:51:10.234Z,16.54
2023-01-29T10:53:37.639Z,16.57
2023-01-29T10:56:14.039Z,16.63
2023-01-29T10:58:45.506Z,16.67
2023-01-29T11:01:13.772Z,16.71
2023-01-29T11:03:40.317Z,16.75
2023-01-29T11:06:06.734Z,16.84
2023-01-29T11:08:33.113Z,16.82
2023-01-29T11:10:59.946Z,16.84
2023-01-29T11:13:27.335Z,16.88
2023-01-29T11:15:53.754Z,16.94
2023-01-29T11:18:20.121Z,16.96
2023-01-29T11:20:46.655Z,17.03
2023-01-29T11:23:13.046Z,17.09
2023-01-29T11:25:39.600Z,17.14
2023-01-29T11:28:06.121Z,17.18
2023-01-29T11:30:32.984Z,17.18
2023-01-29T11:32:59.397Z,17.21
2023-01-29T11:35:25.981Z,17.26
2023-01-29T11:37:53.175Z,17.30
2023-01-29T11:40:19.967Z,17.34
2023-01-29T11:42:46.965Z,17.36
2023-01-29T11:45:13.798Z,17.31
2023-01-29T11:47:40.294Z,17.26
2023-01-29T11:50:06.792Z,17.18
2023-01-29T11:52:33.536Z,17.14
2023-01-29T11:54:59.861Z,17.09
2023-01-29T11:57:26.274Z,17.08
2023-01-29T11:59:52.680Z,17.05
2023-01-29T12:02:19.135Z,17.00
2023-01-29T12:04:46.829Z,17.01
2023-01-29T12:07:13.185Z,17.00
2023-01-29T12:09:39.585Z,17.00
2023-01-29T12:12:06.151Z,17.02
2023-01-29T12:14:33.175Z,17.03
2023-01-29T12:16:59.564Z,17.07
2023-01-29T12:19:25.990Z,17.09
2023-01-29T12:21:52.901Z,17.14
2023-01-29T12:24:19.332Z,17.19
2023-01-29T12:26:45.746Z,17.21
2023-01-29T12:29:12.834Z,17.24
2023-01-29T12:31:39.128Z,17.28
2023-01-29T12:34:05.573Z,17.31
2023-01-29T12:36:32.317Z,17.36
2023-01-29T12:38:58.912Z,17.38
2023-01-29T12:41:25.735Z,17.52
2023-01-29T12:43:52.377Z,17.56
2023-01-29T12:46:19.360Z,17.60
2023-01-29T12:48:46.867Z,17.64
2023-01-29T12:51:13.462Z,17.78
2023-01-29T12:53:40.128Z,17.84
2023-01-29T12:56:06.973Z,17.86
2023-01-29T12:58:34.073Z,17.92
2023-01-29T13:01:00.756Z,17.98
2023-01-29T13:03:27.960Z,18.08
2023-01-29T13:05:54.905Z,18.17
2023-01-29T13:08:21.430Z,18.28
2023-01-29T13:10:47.873Z,18.34
2023-01-29T13:13:14.347Z,18.43
2023-01-29T13:15:41.131Z,18.52
2023-01-29T13:18:08.083Z,18.59
2023-01-29T13:20:34.634Z,18.63
2023-01-29T13:23:01.380Z,18.70
2023-01-29T13:25:27.850Z,18.76
2023-01-29T13:27:54.964Z,18.84
2023-01-29T13:30:21.618Z,18.89
2023-01-29T13:32:48.389Z,18.97
2023-01-29T13:35:15.004Z,19.03
2023-01-29T13:37:41.914Z,19.11
2023-01-29T13:40:08.628Z,19.18
2023-01-29T13:42:35.374Z,19.24
2023-01-29T13:45:01.905Z,19.30
2023-01-29T13:47:28.838Z,19.38
2023-01-29T13:49:55.374Z,19.43
2023-01-29T13:52:22.173Z,19.48
2023-01-29T13:54:48.938Z,19.50
2023-01-29T13:57:15.559Z,19.52
2023-01-29T13:59:42.119Z,19.53
2023-01-29T14:02:09.261Z,19.56
2023-01-29T14:04:35.671Z,19.60
2023-01-29T14:07:02.245Z,19.56
2023-01-29T14:09:29.073Z,19.57
2023-01-29T14:11:56.087Z,19.61
2023-01-29T14:14:22.623Z,19.60
2023-01-29T14:16:49.738Z,19.60
2023-01-29T14:19:16.384Z,19.57
2023-01-29T14:21:42.892Z,19.58
2023-01-29T14:24:09.957Z,19.60
2023-01-29T14:26:36.482Z,19.61
2023-01-29T14:29:02.911Z,19.64
2023-01-29T14:31:29.499Z,19.65
2023-01-29T14:33:56.311Z,19.70
2023-01-29T14:36:22.717Z,19.70
2023-01-29T14:38:51.899Z,19.70
2023-01-29T14:41:19.974Z,19.70
2023-01-29T14:43:46.432Z,19.73
2023-01-29T14:46:12.965Z,19.73
2023-01-29T14:48:39.524Z,19.75
2023-01-29T14:51:07.061Z,19.77
2023-01-29T14:53:34.570Z,19.77
2023-01-29T14:56:01.024Z,19.76
2023-01-29T14:58:27.559Z,19.48
2023-01-29T15:00:54.396Z,19.53
2023-01-29T15:03:21.779Z,19.54
2023-01-29T15:05:48.156Z,19.57
2023-01-29T15:08:14.733Z,19.59
2023-01-29T15:10:41.489Z,19.61
2023-01-29T15:13:07.963Z,19.64
2023-01-29T15:15:34.503Z,19.67
2023-01-29T15:18:01.419Z,19.65
2023-01-29T15:20:28.381Z,19.63
2023-01-29T15:22:55.241Z,19.66
2023-01-29T15:25:21.832Z,19.69
2023-01-29T15:27:48.886Z,19.73
2023-01-29T15:30:15.737Z,19.72
2023-01-29T15:32:42.658Z,19.73
2023-01-29T15:35:09.014Z,19.63
2023-01-29T15:37:35.614Z,19.55
2023-01-29T15:40:02.773Z,19.46
2023-01-29T15:42:29.579Z,19.41
2023-01-29T15:44:56.736Z,19.39
2023-01-29T15:47:23.222Z,19.35
2023-01-29T15:49:49.727Z,19.33
2023-01-29T15:52:16.276Z,19.20
2023-01-29T15:54:42.624Z,19.08
2023-01-29T15:57:09.563Z,19.07
2023-01-29T15:59:36.083Z,19.08
2023-01-29T16:02:02.448Z,19.07
2023-01-29T16:04:29.029Z,19.06
2023-01-29T16:06:55.814Z,19.05
2023-01-29T16:09:22.411Z,19.04
2023-01-29T16:11:48.843Z,19.03
2023-01-29T16:14:15.429Z,19.02
2023-01-29T16:16:41.888Z,19.00
2023-01-29T16:19:08.995Z,18.96
2023-01-29T16:21:35.376Z,18.98
2023-01-29T16:24:01.893Z,18.90
2023-01-29T16:26:28.716Z,18.87
2023-01-29T16:28:55.680Z,18.80
2023-01-29T16:31:22.206Z,18.80
2023-01-29T16:33:48.961Z,18.74
2023-01-29T16:36:15.422Z,18.68
2023-01-29T16:38:41.888Z,18.67
2023-01-29T16:41:08.410Z,18.69
2023-01-29T16:43:41.955Z,18.66
2023-01-29T16:46:09.181Z,18.61
2023-01-29T16:48:35.873Z,18.58
2023-01-29T16:51:02.384Z,18.50
2023-01-29T16:53:28.682Z,18.48
2023-01-29T16:55:55.523Z,18.46
2023-01-29T16:58:21.946Z,18.39
2023-01-29T17:00:48.440Z,18.44
2023-01-29T17:03:14.960Z,18.36
2023-01-29T17:05:41.270Z,18.34
2023-01-29T17:08:08.085Z,18.26
2023-01-29T17:10:34.823Z,18.29
2023-01-29T17:13:01.301Z,18.24
2023-01-29T17:15:28.267Z,18.22
2023-01-29T17:17:55.097Z,18.19
2023-01-29T17:20:21.468Z,18.10
2023-01-29T17:22:48.260Z,18.16
2023-01-29T17:25:15.171Z,18.10
2023-01-29T17:27:41.913Z,18.11
2023-01-29T17:30:08.283Z,18.01
2023-01-29T17:32:43.525Z,18.02
2023-01-29T17:35:11.684Z,17.95
2023-01-29T17:37:38.336Z,17.89
2023-01-29T17:40:05.475Z,17.80
2023-01-29T17:42:31.908Z,17.77
2023-01-29T17:44:58.375Z,17.75
2023-01-29T17:47:25.518Z,17.70
2023-01-29T17:49:51.982Z,17.69
2023-01-29T17:52:18.631Z,17.65
2023-01-29T17:54:45.116Z,17.61
2023-01-29T17:57:11.835Z,17.63
2023-01-29T17:59:39.211Z,17.55
2023-01-29T18:02:05.788Z,17.47
2023-01-29T18:04:32.360Z,17.49
2023-01-29T18:06:58.819Z,17.46
2023-01-29T18:09:25.584Z,17.45
2023-01-29T18:11:52.140Z,17.36
2023-01-29T18:14:18.748Z,17.39
2023-01-29T18:16:45.384Z,17.34
2023-01-29T18:19:12.076Z,17.31
2023-01-29T18:21:38.638Z,17.21
2023-01-29T18:24:05.786Z,17.08
2023-01-29T18:26:32.685Z,17.22
2023-01-29T18:28:59.612Z,17.12
2023-01-29T18:31:26.140Z,17.12
2023-01-29T18:33:52.652Z,17.09
2023-01-29T18:36:19.918Z,17.09
2023-01-29T18:38:46.273Z,17.08
2023-01-29T18:41:13.005Z,17.10
2023-01-29T18:43:39.492Z,17.07
2023-01-29T18:46:06.185Z,17.07
2023-01-29T18:48:32.760Z,17.05
2023-01-29T18:50:59.885Z,16.94
2023-01-29T18:53:27.270Z,16.97
2023-01-29T18:55:53.631Z,16.98
2023-01-29T18:58:28.052Z,16.97
2023-01-29T19:01:01.465Z,16.94
2023-01-29T19:03:28.085Z,16.86
2023-01-29T19:05:54.785Z,16.88
2023-01-29T19:08:21.479Z,16.77
2023-01-29T19:10:48.223Z,16.77
2023-01-29T19:13:14.649Z,16.73
2023-01-29T19:15:41.603Z,16.70
2023-01-29T19:18:08.036Z,16.77
2023-01-29T19:20:34.457Z,16.71
2023-01-29T19:23:00.825Z,16.78
2023-01-29T19:25:27.762Z,16.71
2023-01-29T19:27:54.217Z,16.72
2023-01-29T19:30:20.723Z,16.63
2023-01-29T19:32:47.801Z,16.64
2023-01-29T19:35:14.114Z,16.61
2023-01-29T19:37:40.730Z,16.59
2023-01-29T19:40:07.264Z,16.63
2023-01-29T19:42:33.869Z,16.55
2023-01-29T19:45:00.504Z,16.57
2023-01-29T19:47:27.418Z,16.52
2023-01-29T19:49:54.095Z,16.55
2023-01-29T19:52:20.510Z,16.49
2023-01-29T19:54:47.459Z,16.55
2023-01-29T19:57:14.051Z,16.53
2023-01-29T19:59:40.500Z,16.46
2023-01-29T20:02:07.469Z,16.46
2023-01-29T20:04:34.272Z,16.43
2023-01-29T20:07:00.882Z,16.45
2023-01-29T20:09:27.289Z,16.46
2023-01-29T20:11:53.913Z,16.40
2023-01-29T20:14:20.478Z,16.37
2023-01-29T20:16:46.969Z,16.43
2023-01-29T20:19:15.134Z,16.43
2023-01-29T20:21:41.605Z,16.39
2023-01-29T20:24:08.950Z,16.41
2023-01-29T20:26:35.481Z,16.39
2023-01-29T20:29:01.857Z,16.38
2023-01-29T20:31:28.728Z,16.35
2023-01-29T20:33:55.821Z,16.31
2023-01-29T20:36:22.941Z,16.28
2023-01-29T20:38:49.326Z,16.34
2023-01-29T20:41:15.777Z,16.31
2023-01-29T20:43:42.437Z,16.27
2023-01-29T20:46:08.928Z,16.25
2023-01-29T20:48:35.562Z,16.28
2023-01-29T20:51:02.143Z,16.26
2023-01-29T20:53:28.545Z,16.19
2023-01-29T20:55:55.090Z,16.17
2023-01-29T20:58:21.543Z,16.15
2023-01-29T21:00:48.264Z,16.16
2023-01-29T21:03:14.982Z,16.12
2023-01-29T21:05:41.420Z,16.13
2023-01-29T21:08:07.860Z,16.12
2023-01-29T21:10:34.327Z,16.15
2023-01-29T21:13:01.572Z,16.11
2023-01-29T21:15:28.318Z,16.16
2023-01-29T21:17:55.293Z,16.13
2023-01-29T21:20:21.907Z,16.06
2023-01-29T21:22:48.327Z,16.10
2023-01-29T21:25:14.778Z,16.08
2023-01-29T21:27:41.163Z,15.91
2023-01-29T21:30:07.720Z,16.01
2023-01-29T21:32:34.198Z,16.02
2023-01-29T21:35:01.002Z,15.99
2023-01-29T21:37:28.027Z,15.97
2023-01-29T21:39:54.748Z,15.97
2023-01-29T21:42:21.851Z,15.91
2023-01-29T21:44:48.317Z,15.94
2023-01-29T21:47:15.118Z,15.97
2023-01-29T21:49:42.065Z,15.93
2023-01-29T21:52:08.454Z,15.88
2023-01-29T21:54:34.916Z,15.84
2023-01-29T21:57:01.379Z,15.88
2023-01-29T21:59:27.930Z,15.89
2023-01-29T22:01:54.410Z,15.86
2023-01-29T22:04:21.096Z,15.82
2023-01-29T22:06:48.132Z,15.87
2023-01-29T22:09:15.039Z,15.85
2023-01-29T22:11:41.702Z,15.84
2023-01-29T22:14:08.083Z,15.80
2023-01-29T22:16:34.577Z,15.85
2023-01-29T22:19:01.471Z,15.71
2023-01-29T22:21:28.165Z,15.74
2023-01-29T22:23:54.877Z,15.75
2023-01-29T22:26:21.367Z,15.75
2023-01-29T22:28:48.049Z,15.70
2023-01-29T22:31:15.169Z,15.72
2023-01-29T22:33:41.622Z,15.69
2023-01-29T22:36:08.291Z,15.62
2023-01-29T22:38:35.439Z,15.73
2023-01-29T22:41:01.791Z,15.62
2023-01-29T22:43:28.475Z,15.53
2023-01-29T22:45:54.908Z,15.29
2023-01-29T22:48:21.461Z,15.55
2023-01-29T22:50:48.656Z,15.52
2023-01-29T22:53:15.033Z,15.48
2023-01-29T22:55:41.465Z,15.58
2023-01-29T22:58:08.144Z,15.54
2023-01-29T23:00:34.496Z,15.55
2023-01-29T23:03:01.208Z,15.43
2023-01-29T23:05:27.826Z,15.56
2023-01-29T23:07:54.948Z,15.56
2023-01-29T23:10:21.297Z,15.47
2023-01-29T23:12:47.686Z,15.53
2023-01-29T23:15:14.315Z,15.49
2023-01-29T23:17:40.674Z,15.51
2023-01-29T23:20:07.021Z,15.50
2023-01-29T23:22:33.551Z,15.35
2023-01-29T23:25:00.048Z,15.04
2023-01-29T23:27:26.640Z,15.29
2023-01-29T23:29:53.264Z,15.36
2023-01-29T23:32:19.725Z,15.26
2023-01-29T23:34:46.342Z,15.21
2023-01-29T23:37:12.930Z,15.37
2023-01-29T23:39:39.418Z,15.33
2023-01-29T23:42:05.788Z,15.36
2023-01-29T23:44:32.344Z,15.30
2023-01-29T23:46:59.103Z,15.25
2023-01-29T23:49:25.537Z,15.33
2023-01-29T23:51:51.922Z,15.16
2023-01-29T23:54:18.437Z,15.21
2023-01-29T23:56:44.860Z,15.24
2023-01-29T23:59:11.403Z,15.22
